sensor_id;sensor_type;location;lat;lon;timestamp;P1;durP1;ratioP1;P2;durP2;ratioP2
70165;SDS011;57541;47.408;18.822;2023-02-27T00:00:14;11.15;;;6.22;;
70165;SDS011;57541;47.408;18.822;2023-02-27T00:00:47;10.88;;;6.35;;
70165;SDS011;57541;47.408;18.822;2023-02-27T00:01:19;10.13;;;5.65;;
70165;SDS011;57541;47.408;18.822;2023-02-27T00:01:51;10.38;;;5.45;;
70165;SDS011;57541;47.408;18.822;2023-02-27T00:02:23;10.75;;;5.78;;
70165;SDS011;57541;47.408;18.822;2023-02-27T00:02:55;10.48;;;5.72;;
70165;SDS011;57541;47.408;18.822;2023-02-27T00:03:28;11.70;;;6.07;;
70165;SDS011;57541;47.408;18.822;2023-02-27T00:04:00;12.07;;;5.65;;
70165;SDS011;57541;47.408;18.822;2023-02-27T00:04:32;11.68;;;6.47;;
70165;SDS011;57541;47.408;18.822;2023-02-27T00:05:04;10.60;;;6.10;;
70165;SDS011;57541;47.408;18.822;2023-02-27T00:05:37;9.98;;;5.63;;
70165;SDS011;57541;47.408;18.822;2023-02-27T00:06:11;12.02;;;6.15;;
70165;SDS011;57541;47.408;18.822;2023-02-27T00:06:43;10.18;;;5.82;;
70165;SDS011;57541;47.408;18.822;2023-02-27T00:07:15;10.18;;;5.72;;
70165;SDS011;57541;47.408;18.822;2023-02-27T00:07:46;10.65;;;6.22;;
70165;SDS011;57541;47.408;18.822;2023-02-27T00:08:19;11.00;;;5.88;;
70165;SDS011;57541;47.408;18.822;2023-02-27T00:08:50;10.68;;;6.03;;
70165;SDS011;57541;47.408;18.822;2023-02-27T00:09:22;9.60;;;5.50;;
70165;SDS011;57541;47.408;18.822;2023-02-27T00:09:54;10.38;;;5.90;;
70165;SDS011;57541;47.408;18.822;2023-02-27T00:10:25;10.52;;;5.90;;
70165;SDS011;57541;47.408;18.822;2023-02-27T00:10:57;11.30;;;6.00;;
70165;SDS011;57541;47.408;18.822;2023-02-27T00:11:29;11.65;;;6.10;;
70165;SDS011;57541;47.408;18.822;2023-02-27T00:12:00;12.45;;;5.88;;
70165;SDS011;57541;47.408;18.822;2023-02-27T00:12:32;10.35;;;5.80;;
70165;SDS011;57541;47.408;18.822;2023-02-27T00:13:08;10.43;;;5.80;;
70165;SDS011;57541;47.408;18.822;2023-02-27T00:13:40;10.73;;;5.78;;
70165;SDS011;57541;47.408;18.822;2023-02-27T00:14:12;11.55;;;6.22;;
70165;SDS011;57541;47.408;18.822;2023-02-27T00:14:43;10.88;;;6.03;;
70165;SDS011;57541;47.408;18.822;2023-02-27T00:15:16;13.45;;;7.00;;
70165;SDS011;57541;47.408;18.822;2023-02-27T00:15:49;10.05;;;5.97;;
70165;SDS011;57541;47.408;18.822;2023-02-27T00:16:22;10.00;;;6.00;;
70165;SDS011;57541;47.408;18.822;2023-02-27T00:16:53;11.23;;;6.15;;
70165;SDS011;57541;47.408;18.822;2023-02-27T00:17:25;10.30;;;5.80;;
70165;SDS011;57541;47.408;18.822;2023-02-27T00:17:59;10.55;;;5.45;;
70165;SDS011;57541;47.408;18.822;2023-02-27T00:18:31;10.90;;;6.60;;
70165;SDS011;57541;47.408;18.822;2023-02-27T00:19:03;12.18;;;5.97;;
70165;SDS011;57541;47.408;18.822;2023-02-27T00:19:35;10.00;;;5.97;;
70165;SDS011;57541;47.408;18.822;2023-02-27T00:20:07;10.30;;;5.97;;
70165;SDS011;57541;47.408;18.822;2023-02-27T00:20:41;11.63;;;6.13;;
70165;SDS011;57541;47.408;18.822;2023-02-27T00:21:13;9.80;;;5.55;;
70165;SDS011;57541;47.408;18.822;2023-02-27T00:21:44;11.25;;;5.78;;
70165;SDS011;57541;47.408;18.822;2023-02-27T00:22:16;12.23;;;6.00;;
70165;SDS011;57541;47.408;18.822;2023-02-27T00:22:48;13.55;;;5.95;;
70165;SDS011;57541;47.408;18.822;2023-02-27T00:23:19;11.40;;;6.10;;
70165;SDS011;57541;47.408;18.822;2023-02-27T00:23:51;11.32;;;5.80;;
70165;SDS011;57541;47.408;18.822;2023-02-27T00:24:23;9.73;;;5.68;;
70165;SDS011;57541;47.408;18.822;2023-02-27T00:24:55;10.40;;;6.25;;
70165;SDS011;57541;47.408;18.822;2023-02-27T00:25:26;10.63;;;5.72;;
70165;SDS011;57541;47.408;18.822;2023-02-27T00:25:58;10.73;;;5.60;;
70165;SDS011;57541;47.408;18.822;2023-02-27T00:26:31;9.68;;;5.57;;
70165;SDS011;57541;47.408;18.822;2023-02-27T00:27:02;10.77;;;6.07;;
70165;SDS011;57541;47.408;18.822;2023-02-27T00:27:34;9.90;;;5.82;;
70165;SDS011;57541;47.408;18.822;2023-02-27T00:28:07;12.07;;;6.32;;
70165;SDS011;57541;47.408;18.822;2023-02-27T00:28:38;11.85;;;6.30;;
70165;SDS011;57541;47.408;18.822;2023-02-27T00:29:10;10.68;;;5.60;;
70165;SDS011;57541;47.408;18.822;2023-02-27T00:29:42;11.02;;;6.05;;
70165;SDS011;57541;47.408;18.822;2023-02-27T00:30:14;9.55;;;5.70;;
70165;SDS011;57541;47.408;18.822;2023-02-27T00:30:46;10.27;;;5.70;;
70165;SDS011;57541;47.408;18.822;2023-02-27T00:31:17;10.73;;;5.78;;
70165;SDS011;57541;47.408;18.822;2023-02-27T00:31:49;11.10;;;5.78;;
70165;SDS011;57541;47.408;18.822;2023-02-27T00:32:21;11.02;;;5.85;;
70165;SDS011;57541;47.408;18.822;2023-02-27T00:32:53;10.38;;;5.93;;
70165;SDS011;57541;47.408;18.822;2023-02-27T00:33:25;11.70;;;5.82;;
70165;SDS011;57541;47.408;18.822;2023-02-27T00:33:57;11.45;;;5.88;;
70165;SDS011;57541;47.408;18.822;2023-02-27T00:34:29;9.73;;;5.47;;
70165;SDS011;57541;47.408;18.822;2023-02-27T00:35:04;11.23;;;5.80;;
70165;SDS011;57541;47.408;18.822;2023-02-27T00:35:37;11.93;;;6.22;;
70165;SDS011;57541;47.408;18.822;2023-02-27T00:36:09;11.75;;;5.95;;
70165;SDS011;57541;47.408;18.822;2023-02-27T00:36:41;10.85;;;6.32;;
70165;SDS011;57541;47.408;18.822;2023-02-27T00:37:12;12.93;;;6.45;;
70165;SDS011;57541;47.408;18.822;2023-02-27T00:37:44;11.23;;;6.03;;
70165;SDS011;57541;47.408;18.822;2023-02-27T00:38:16;11.98;;;6.70;;
70165;SDS011;57541;47.408;18.822;2023-02-27T00:38:48;12.27;;;7.25;;
70165;SDS011;57541;47.408;18.822;2023-02-27T00:39:19;13.85;;;6.80;;
70165;SDS011;57541;47.408;18.822;2023-02-27T00:39:51;12.45;;;6.93;;
70165;SDS011;57541;47.408;18.822;2023-02-27T00:40:22;14.18;;;7.13;;
70165;SDS011;57541;47.408;18.822;2023-02-27T00:40:55;12.52;;;6.80;;
70165;SDS011;57541;47.408;18.822;2023-02-27T00:41:27;13.35;;;6.72;;
70165;SDS011;57541;47.408;18.822;2023-02-27T00:41:59;13.63;;;7.35;;
70165;SDS011;57541;47.408;18.822;2023-02-27T00:42:31;13.93;;;6.82;;
70165;SDS011;57541;47.408;18.822;2023-02-27T00:43:03;12.25;;;6.70;;
70165;SDS011;57541;47.408;18.822;2023-02-27T00:43:34;12.35;;;6.90;;
70165;SDS011;57541;47.408;18.822;2023-02-27T00:44:06;12.10;;;7.35;;
70165;SDS011;57541;47.408;18.822;2023-02-27T00:44:38;16.20;;;7.25;;
70165;SDS011;57541;47.408;18.822;2023-02-27T00:45:11;12.13;;;6.57;;
70165;SDS011;57541;47.408;18.822;2023-02-27T00:45:42;14.13;;;7.53;;
70165;SDS011;57541;47.408;18.822;2023-02-27T00:46:14;13.93;;;7.20;;
70165;SDS011;57541;47.408;18.822;2023-02-27T00:46:46;13.38;;;7.47;;
70165;SDS011;57541;47.408;18.822;2023-02-27T00:47:17;12.02;;;7.30;;
70165;SDS011;57541;47.408;18.822;2023-02-27T00:47:49;13.18;;;7.10;;
70165;SDS011;57541;47.408;18.822;2023-02-27T00:48:21;14.73;;;7.40;;
70165;SDS011;57541;47.408;18.822;2023-02-27T00:48:52;13.18;;;6.95;;
70165;SDS011;57541;47.408;18.822;2023-02-27T00:49:24;12.60;;;6.97;;
70165;SDS011;57541;47.408;18.822;2023-02-27T00:49:56;13.10;;;7.22;;
70165;SDS011;57541;47.408;18.822;2023-02-27T00:50:28;13.68;;;7.28;;
70165;SDS011;57541;47.408;18.822;2023-02-27T00:50:59;11.38;;;7.18;;
70165;SDS011;57541;47.408;18.822;2023-02-27T00:51:31;12.10;;;7.07;;
70165;SDS011;57541;47.408;18.822;2023-02-27T00:52:03;12.40;;;6.78;;
70165;SDS011;57541;47.408;18.822;2023-02-27T00:52:35;11.52;;;6.40;;
70165;SDS011;57541;47.408;18.822;2023-02-27T00:53:07;11.85;;;6.63;;
70165;SDS011;57541;47.408;18.822;2023-02-27T00:53:38;11.30;;;6.50;;
70165;SDS011;57541;47.408;18.822;2023-02-27T00:54:10;13.18;;;7.18;;
70165;SDS011;57541;47.408;18.822;2023-02-27T00:54:42;14.85;;;7.32;;
70165;SDS011;57541;47.408;18.822;2023-02-27T00:55:13;13.05;;;6.68;;
70165;SDS011;57541;47.408;18.822;2023-02-27T00:55:45;14.20;;;6.95;;
70165;SDS011;57541;47.408;18.822;2023-02-27T00:56:16;13.20;;;6.70;;
70165;SDS011;57541;47.408;18.822;2023-02-27T00:56:48;14.30;;;7.53;;
70165;SDS011;57541;47.408;18.822;2023-02-27T00:57:20;13.20;;;7.03;;
70165;SDS011;57541;47.408;18.822;2023-02-27T00:57:53;14.82;;;7.60;;
70165;SDS011;57541;47.408;18.822;2023-02-27T00:58:24;13.20;;;7.00;;
70165;SDS011;57541;47.408;18.822;2023-02-27T00:58:56;16.25;;;7.57;;
70165;SDS011;57541;47.408;18.822;2023-02-27T00:59:28;13.63;;;6.65;;
70165;SDS011;57541;47.408;18.822;2023-02-27T00:59:59;12.40;;;6.85;;
70165;SDS011;57541;47.408;18.822;2023-02-27T01:00:31;13.55;;;6.90;;
70165;SDS011;57541;47.408;18.822;2023-02-27T01:01:03;12.52;;;6.70;;
70165;SDS011;57541;47.408;18.822;2023-02-27T01:01:35;11.07;;;6.15;;
70165;SDS011;57541;47.408;18.822;2023-02-27T01:02:06;13.68;;;6.53;;
70165;SDS011;57541;47.408;18.822;2023-02-27T01:02:38;13.30;;;6.72;;
70165;SDS011;57541;47.408;18.822;2023-02-27T01:03:10;10.82;;;6.38;;
70165;SDS011;57541;47.408;18.822;2023-02-27T01:03:42;14.35;;;6.55;;
70165;SDS011;57541;47.408;18.822;2023-02-27T01:04:13;12.45;;;6.60;;
70165;SDS011;57541;47.408;18.822;2023-02-27T01:04:45;13.13;;;6.28;;
70165;SDS011;57541;47.408;18.822;2023-02-27T01:05:17;12.02;;;6.60;;
70165;SDS011;57541;47.408;18.822;2023-02-27T01:05:50;14.13;;;6.38;;
70165;SDS011;57541;47.408;18.822;2023-02-27T01:06:21;11.50;;;6.65;;
70165;SDS011;57541;47.408;18.822;2023-02-27T01:06:53;12.43;;;6.53;;
70165;SDS011;57541;47.408;18.822;2023-02-27T01:07:25;11.52;;;6.72;;
70165;SDS011;57541;47.408;18.822;2023-02-27T01:07:57;11.55;;;6.50;;
70165;SDS011;57541;47.408;18.822;2023-02-27T01:08:29;12.73;;;6.78;;
70165;SDS011;57541;47.408;18.822;2023-02-27T01:09:00;10.77;;;5.93;;
70165;SDS011;57541;47.408;18.822;2023-02-27T01:09:33;13.40;;;6.47;;
70165;SDS011;57541;47.408;18.822;2023-02-27T01:10:05;12.10;;;6.13;;
70165;SDS011;57541;47.408;18.822;2023-02-27T01:10:38;11.93;;;6.20;;
70165;SDS011;57541;47.408;18.822;2023-02-27T01:11:10;11.50;;;6.10;;
70165;SDS011;57541;47.408;18.822;2023-02-27T01:11:41;12.52;;;6.50;;
70165;SDS011;57541;47.408;18.822;2023-02-27T01:12:13;11.90;;;6.72;;
70165;SDS011;57541;47.408;18.822;2023-02-27T01:12:45;11.95;;;6.38;;
70165;SDS011;57541;47.408;18.822;2023-02-27T01:13:16;11.18;;;6.20;;
70165;SDS011;57541;47.408;18.822;2023-02-27T01:13:48;11.65;;;6.07;;
70165;SDS011;57541;47.408;18.822;2023-02-27T01:14:19;12.73;;;6.65;;
70165;SDS011;57541;47.408;18.822;2023-02-27T01:14:51;13.18;;;6.43;;
70165;SDS011;57541;47.408;18.822;2023-02-27T01:15:23;11.20;;;6.15;;
70165;SDS011;57541;47.408;18.822;2023-02-27T01:15:54;13.02;;;6.35;;
70165;SDS011;57541;47.408;18.822;2023-02-27T01:16:26;10.77;;;6.18;;
70165;SDS011;57541;47.408;18.822;2023-02-27T01:16:58;11.95;;;6.40;;
70165;SDS011;57541;47.408;18.822;2023-02-27T01:17:31;13.77;;;6.60;;
70165;SDS011;57541;47.408;18.822;2023-02-27T01:18:03;12.25;;;6.82;;
70165;SDS011;57541;47.408;18.822;2023-02-27T01:18:35;11.73;;;6.20;;
70165;SDS011;57541;47.408;18.822;2023-02-27T01:19:06;12.60;;;6.57;;
70165;SDS011;57541;47.408;18.822;2023-02-27T01:19:38;11.45;;;6.20;;
70165;SDS011;57541;47.408;18.822;2023-02-27T01:20:10;12.43;;;6.50;;
70165;SDS011;57541;47.408;18.822;2023-02-27T01:20:43;13.05;;;6.35;;
70165;SDS011;57541;47.408;18.822;2023-02-27T01:21:15;12.43;;;6.70;;
70165;SDS011;57541;47.408;18.822;2023-02-27T01:21:46;13.15;;;6.40;;
70165;SDS011;57541;47.408;18.822;2023-02-27T01:22:18;11.77;;;6.40;;
70165;SDS011;57541;47.408;18.822;2023-02-27T01:22:50;12.00;;;6.38;;
70165;SDS011;57541;47.408;18.822;2023-02-27T01:23:22;11.85;;;6.43;;
70165;SDS011;57541;47.408;18.822;2023-02-27T01:23:53;11.80;;;6.40;;
70165;SDS011;57541;47.408;18.822;2023-02-27T01:24:25;11.13;;;6.28;;
70165;SDS011;57541;47.408;18.822;2023-02-27T01:24:57;11.57;;;5.95;;
70165;SDS011;57541;47.408;18.822;2023-02-27T01:25:28;11.18;;;6.63;;
70165;SDS011;57541;47.408;18.822;2023-02-27T01:26:00;13.18;;;6.50;;
70165;SDS011;57541;47.408;18.822;2023-02-27T01:26:32;12.10;;;6.47;;
70165;SDS011;57541;47.408;18.822;2023-02-27T01:27:03;12.00;;;6.30;;
70165;SDS011;57541;47.408;18.822;2023-02-27T01:27:35;13.48;;;6.57;;
70165;SDS011;57541;47.408;18.822;2023-02-27T01:28:07;11.55;;;6.75;;
70165;SDS011;57541;47.408;18.822;2023-02-27T01:28:39;13.63;;;6.72;;
70165;SDS011;57541;47.408;18.822;2023-02-27T01:29:10;11.85;;;6.90;;
70165;SDS011;57541;47.408;18.822;2023-02-27T01:29:42;12.48;;;6.90;;
70165;SDS011;57541;47.408;18.822;2023-02-27T01:30:13;12.65;;;6.07;;
70165;SDS011;57541;47.408;18.822;2023-02-27T01:30:47;12.52;;;6.88;;
70165;SDS011;57541;47.408;18.822;2023-02-27T01:31:19;11.60;;;6.38;;
70165;SDS011;57541;47.408;18.822;2023-02-27T01:31:50;11.27;;;6.30;;
70165;SDS011;57541;47.408;18.822;2023-02-27T01:32:22;12.82;;;6.47;;
70165;SDS011;57541;47.408;18.822;2023-02-27T01:32:54;12.27;;;6.45;;
70165;SDS011;57541;47.408;18.822;2023-02-27T01:33:26;13.13;;;6.63;;
70165;SDS011;57541;47.408;18.822;2023-02-27T01:33:58;11.48;;;6.93;;
70165;SDS011;57541;47.408;18.822;2023-02-27T01:34:29;11.23;;;6.05;;
70165;SDS011;57541;47.408;18.822;2023-02-27T01:35:04;12.18;;;6.45;;
70165;SDS011;57541;47.408;18.822;2023-02-27T01:35:36;12.90;;;7.07;;
70165;SDS011;57541;47.408;18.822;2023-02-27T01:36:08;14.60;;;7.15;;
70165;SDS011;57541;47.408;18.822;2023-02-27T01:36:40;12.88;;;6.97;;
70165;SDS011;57541;47.408;18.822;2023-02-27T01:37:12;11.20;;;6.85;;
70165;SDS011;57541;47.408;18.822;2023-02-27T01:37:43;12.93;;;6.60;;
70165;SDS011;57541;47.408;18.822;2023-02-27T01:38:15;12.95;;;6.50;;
70165;SDS011;57541;47.408;18.822;2023-02-27T01:38:47;11.70;;;6.90;;
70165;SDS011;57541;47.408;18.822;2023-02-27T01:39:19;11.75;;;5.97;;
70165;SDS011;57541;47.408;18.822;2023-02-27T01:39:50;12.65;;;6.95;;
70165;SDS011;57541;47.408;18.822;2023-02-27T01:40:22;11.18;;;6.13;;
70165;SDS011;57541;47.408;18.822;2023-02-27T01:40:54;11.43;;;6.68;;
70165;SDS011;57541;47.408;18.822;2023-02-27T01:41:27;11.88;;;6.38;;
70165;SDS011;57541;47.408;18.822;2023-02-27T01:42:00;13.40;;;6.53;;
70165;SDS011;57541;47.408;18.822;2023-02-27T01:42:32;12.25;;;6.80;;
70165;SDS011;57541;47.408;18.822;2023-02-27T01:43:04;10.68;;;6.38;;
70165;SDS011;57541;47.408;18.822;2023-02-27T01:43:52;11.95;;;6.57;;
70165;SDS011;57541;47.408;18.822;2023-02-27T01:44:26;12.27;;;6.90;;
70165;SDS011;57541;47.408;18.822;2023-02-27T01:45:43;11.60;;;6.07;;
70165;SDS011;57541;47.408;18.822;2023-02-27T01:46:18;12.32;;;6.20;;
70165;SDS011;57541;47.408;18.822;2023-02-27T01:46:49;11.77;;;6.85;;
70165;SDS011;57541;47.408;18.822;2023-02-27T01:47:21;12.68;;;6.97;;
70165;SDS011;57541;47.408;18.822;2023-02-27T01:47:54;12.85;;;6.53;;
70165;SDS011;57541;47.408;18.822;2023-02-27T01:48:34;11.65;;;6.22;;
70165;SDS011;57541;47.408;18.822;2023-02-27T01:49:20;12.43;;;6.38;;
70165;SDS011;57541;47.408;18.822;2023-02-27T01:49:54;11.25;;;6.30;;
70165;SDS011;57541;47.408;18.822;2023-02-27T01:50:26;10.60;;;6.00;;
70165;SDS011;57541;47.408;18.822;2023-02-27T01:50:59;10.98;;;6.35;;
70165;SDS011;57541;47.408;18.822;2023-02-27T01:51:39;11.55;;;6.18;;
70165;SDS011;57541;47.408;18.822;2023-02-27T01:52:15;12.52;;;6.32;;
70165;SDS011;57541;47.408;18.822;2023-02-27T01:52:48;12.80;;;6.43;;
70165;SDS011;57541;47.408;18.822;2023-02-27T01:53:25;13.00;;;6.78;;
70165;SDS011;57541;47.408;18.822;2023-02-27T01:53:58;10.27;;;6.10;;
70165;SDS011;57541;47.408;18.822;2023-02-27T01:54:32;12.70;;;6.70;;
70165;SDS011;57541;47.408;18.822;2023-02-27T01:55:07;12.73;;;6.70;;
70165;SDS011;57541;47.408;18.822;2023-02-27T01:55:43;11.30;;;6.45;;
70165;SDS011;57541;47.408;18.822;2023-02-27T01:56:18;13.80;;;6.93;;
70165;SDS011;57541;47.408;18.822;2023-02-27T01:56:51;11.30;;;6.45;;
70165;SDS011;57541;47.408;18.822;2023-02-27T01:57:23;13.57;;;6.68;;
70165;SDS011;57541;47.408;18.822;2023-02-27T01:57:56;12.43;;;5.95;;
70165;SDS011;57541;47.408;18.822;2023-02-27T01:58:28;15.73;;;6.30;;
70165;SDS011;57541;47.408;18.822;2023-02-27T01:59:01;11.73;;;6.35;;
70165;SDS011;57541;47.408;18.822;2023-02-27T01:59:35;11.95;;;6.70;;
70165;SDS011;57541;47.408;18.822;2023-02-27T02:00:09;13.15;;;6.70;;
70165;SDS011;57541;47.408;18.822;2023-02-27T02:00:41;11.80;;;6.82;;
70165;SDS011;57541;47.408;18.822;2023-02-27T02:01:13;10.50;;;6.00;;
70165;SDS011;57541;47.408;18.822;2023-02-27T02:01:46;12.73;;;6.55;;
70165;SDS011;57541;47.408;18.822;2023-02-27T02:02:20;12.88;;;6.75;;
70165;SDS011;57541;47.408;18.822;2023-02-27T02:03:03;11.70;;;6.20;;
70165;SDS011;57541;47.408;18.822;2023-02-27T02:04:03;11.75;;;6.20;;
70165;SDS011;57541;47.408;18.822;2023-02-27T02:04:37;13.75;;;6.25;;
70165;SDS011;57541;47.408;18.822;2023-02-27T02:05:10;13.20;;;6.63;;
70165;SDS011;57541;47.408;18.822;2023-02-27T02:05:43;12.45;;;6.43;;
70165;SDS011;57541;47.408;18.822;2023-02-27T02:06:17;12.85;;;6.40;;
70165;SDS011;57541;47.408;18.822;2023-02-27T02:06:50;11.60;;;6.70;;
70165;SDS011;57541;47.408;18.822;2023-02-27T02:07:27;15.80;;;7.15;;
70165;SDS011;57541;47.408;18.822;2023-02-27T02:07:59;12.73;;;6.57;;
70165;SDS011;57541;47.408;18.822;2023-02-27T02:08:35;14.63;;;6.85;;
70165;SDS011;57541;47.408;18.822;2023-02-27T02:09:11;11.63;;;6.72;;
70165;SDS011;57541;47.408;18.822;2023-02-27T02:09:47;13.50;;;6.72;;
70165;SDS011;57541;47.408;18.822;2023-02-27T02:10:21;15.18;;;7.07;;
70165;SDS011;57541;47.408;18.822;2023-02-27T02:10:53;12.77;;;6.47;;
70165;SDS011;57541;47.408;18.822;2023-02-27T02:11:28;12.90;;;6.85;;
70165;SDS011;57541;47.408;18.822;2023-02-27T02:12:00;13.50;;;6.93;;
70165;SDS011;57541;47.408;18.822;2023-02-27T02:12:32;12.73;;;6.97;;
70165;SDS011;57541;47.408;18.822;2023-02-27T02:13:06;13.55;;;7.00;;
70165;SDS011;57541;47.408;18.822;2023-02-27T02:13:40;12.30;;;7.20;;
70165;SDS011;57541;47.408;18.822;2023-02-27T02:14:12;12.15;;;6.63;;
70165;SDS011;57541;47.408;18.822;2023-02-27T02:14:44;12.25;;;6.80;;
70165;SDS011;57541;47.408;18.822;2023-02-27T02:15:16;14.20;;;7.47;;
70165;SDS011;57541;47.408;18.822;2023-02-27T02:15:53;13.55;;;7.15;;
70165;SDS011;57541;47.408;18.822;2023-02-27T02:18:28;13.45;;;6.93;;
70165;SDS011;57541;47.408;18.822;2023-02-27T02:24:21;12.30;;;6.63;;
70165;SDS011;57541;47.408;18.822;2023-02-27T02:26:50;11.05;;;6.45;;
70165;SDS011;57541;47.408;18.822;2023-02-27T02:28:13;13.48;;;6.90;;
70165;SDS011;57541;47.408;18.822;2023-02-27T02:29:12;12.27;;;6.60;;
70165;SDS011;57541;47.408;18.822;2023-02-27T02:37:37;14.65;;;6.72;;
70165;SDS011;57541;47.408;18.822;2023-02-27T02:42:57;12.80;;;6.40;;
70165;SDS011;57541;47.408;18.822;2023-02-27T02:45:15;12.00;;;6.43;;
70165;SDS011;57541;47.408;18.822;2023-02-27T02:46:08;11.07;;;6.70;;
70165;SDS011;57541;47.408;18.822;2023-02-27T02:48:19;11.85;;;6.75;;
70165;SDS011;57541;47.408;18.822;2023-02-27T02:51:08;12.90;;;6.30;;
70165;SDS011;57541;47.408;18.822;2023-02-27T02:51:52;12.43;;;6.47;;
70165;SDS011;57541;47.408;18.822;2023-02-27T02:52:35;13.55;;;6.68;;
70165;SDS011;57541;47.408;18.822;2023-02-27T02:53:38;11.75;;;6.50;;
70165;SDS011;57541;47.408;18.822;2023-02-27T02:54:24;13.25;;;6.22;;
70165;SDS011;57541;47.408;18.822;2023-02-27T02:55:06;13.20;;;6.70;;
70165;SDS011;57541;47.408;18.822;2023-02-27T02:55:58;12.30;;;6.53;;
70165;SDS011;57541;47.408;18.822;2023-02-27T02:57:16;12.07;;;6.35;;
70165;SDS011;57541;47.408;18.822;2023-02-27T02:58:02;12.82;;;6.70;;
70165;SDS011;57541;47.408;18.822;2023-02-27T02:59:37;11.68;;;6.53;;
70165;SDS011;57541;47.408;18.822;2023-02-27T03:00:16;13.20;;;6.45;;
70165;SDS011;57541;47.408;18.822;2023-02-27T03:00:55;13.45;;;6.55;;
70165;SDS011;57541;47.408;18.822;2023-02-27T03:02:30;11.23;;;5.93;;
70165;SDS011;57541;47.408;18.822;2023-02-27T03:03:42;13.85;;;6.60;;
70165;SDS011;57541;47.408;18.822;2023-02-27T03:04:30;13.13;;;6.57;;
70165;SDS011;57541;47.408;18.822;2023-02-27T03:05:10;12.98;;;6.78;;
70165;SDS011;57541;47.408;18.822;2023-02-27T03:05:53;13.48;;;7.18;;
70165;SDS011;57541;47.408;18.822;2023-02-27T03:06:30;10.63;;;6.07;;
70165;SDS011;57541;47.408;18.822;2023-02-27T03:07:50;11.32;;;6.50;;
70165;SDS011;57541;47.408;18.822;2023-02-27T03:08:31;12.05;;;6.80;;
70165;SDS011;57541;47.408;18.822;2023-02-27T03:09:11;11.35;;;6.68;;
70165;SDS011;57541;47.408;18.822;2023-02-27T03:09:48;11.60;;;6.10;;
70165;SDS011;57541;47.408;18.822;2023-02-27T03:10:35;14.57;;;7.40;;
70165;SDS011;57541;47.408;18.822;2023-02-27T03:11:12;12.32;;;6.45;;
70165;SDS011;57541;47.408;18.822;2023-02-27T03:11:46;13.70;;;6.85;;
70165;SDS011;57541;47.408;18.822;2023-02-27T03:12:21;11.90;;;6.75;;
70165;SDS011;57541;47.408;18.822;2023-02-27T03:12:57;13.15;;;6.97;;
70165;SDS011;57541;47.408;18.822;2023-02-27T03:13:36;12.95;;;7.35;;
70165;SDS011;57541;47.408;18.822;2023-02-27T03:14:13;13.23;;;6.60;;
70165;SDS011;57541;47.408;18.822;2023-02-27T03:14:50;12.45;;;6.97;;
70165;SDS011;57541;47.408;18.822;2023-02-27T03:15:29;13.10;;;6.95;;
70165;SDS011;57541;47.408;18.822;2023-02-27T03:16:10;13.63;;;7.45;;
70165;SDS011;57541;47.408;18.822;2023-02-27T03:17:02;12.02;;;6.55;;
70165;SDS011;57541;47.408;18.822;2023-02-27T03:17:42;14.48;;;7.18;;
70165;SDS011;57541;47.408;18.822;2023-02-27T03:18:20;11.88;;;6.60;;
70165;SDS011;57541;47.408;18.822;2023-02-27T03:18:57;12.30;;;6.88;;
70165;SDS011;57541;47.408;18.822;2023-02-27T03:19:40;14.65;;;7.03;;
70165;SDS011;57541;47.408;18.822;2023-02-27T03:20:30;12.82;;;6.45;;
70165;SDS011;57541;47.408;18.822;2023-02-27T03:21:07;12.98;;;6.50;;
70165;SDS011;57541;47.408;18.822;2023-02-27T03:22:05;14.18;;;7.07;;
70165;SDS011;57541;47.408;18.822;2023-02-27T03:22:39;12.30;;;6.50;;
70165;SDS011;57541;47.408;18.822;2023-02-27T03:23:18;13.27;;;6.72;;
70165;SDS011;57541;47.408;18.822;2023-02-27T03:23:56;10.93;;;6.00;;
70165;SDS011;57541;47.408;18.822;2023-02-27T03:24:34;12.05;;;6.75;;
70165;SDS011;57541;47.408;18.822;2023-02-27T03:25:17;15.45;;;7.22;;
70165;SDS011;57541;47.408;18.822;2023-02-27T03:25:51;15.60;;;7.38;;
70165;SDS011;57541;47.408;18.822;2023-02-27T03:26:26;11.48;;;6.65;;
70165;SDS011;57541;47.408;18.822;2023-02-27T03:27:03;12.30;;;6.93;;
70165;SDS011;57541;47.408;18.822;2023-02-27T03:27:38;12.20;;;7.07;;
70165;SDS011;57541;47.408;18.822;2023-02-27T03:28:15;11.63;;;6.53;;
70165;SDS011;57541;47.408;18.822;2023-02-27T03:29:34;12.60;;;6.72;;
70165;SDS011;57541;47.408;18.822;2023-02-27T03:30:02;12.55;;;6.40;;
70165;SDS011;57541;47.408;18.822;2023-02-27T03:30:44;12.40;;;6.90;;
70165;SDS011;57541;47.408;18.822;2023-02-27T03:32:15;13.20;;;7.00;;
70165;SDS011;57541;47.408;18.822;2023-02-27T03:33:30;12.10;;;6.95;;
70165;SDS011;57541;47.408;18.822;2023-02-27T03:34:14;13.65;;;6.85;;
70165;SDS011;57541;47.408;18.822;2023-02-27T03:34:52;13.07;;;6.47;;
70165;SDS011;57541;47.408;18.822;2023-02-27T03:35:25;14.55;;;6.93;;
70165;SDS011;57541;47.408;18.822;2023-02-27T03:36:14;12.23;;;6.75;;
70165;SDS011;57541;47.408;18.822;2023-02-27T03:39:58;12.20;;;6.82;;
70165;SDS011;57541;47.408;18.822;2023-02-27T03:40:34;12.88;;;6.25;;
70165;SDS011;57541;47.408;18.822;2023-02-27T03:43:28;13.23;;;6.40;;
70165;SDS011;57541;47.408;18.822;2023-02-27T03:45:38;12.70;;;6.38;;
70165;SDS011;57541;47.408;18.822;2023-02-27T03:46:21;12.77;;;7.00;;
70165;SDS011;57541;47.408;18.822;2023-02-27T03:46:55;14.00;;;7.22;;
70165;SDS011;57541;47.408;18.822;2023-02-27T03:47:27;11.65;;;6.47;;
70165;SDS011;57541;47.408;18.822;2023-02-27T03:47:59;14.25;;;7.43;;
70165;SDS011;57541;47.408;18.822;2023-02-27T03:48:32;12.65;;;7.00;;
70165;SDS011;57541;47.408;18.822;2023-02-27T03:49:04;13.95;;;7.22;;
70165;SDS011;57541;47.408;18.822;2023-02-27T03:49:37;13.02;;;6.72;;
70165;SDS011;57541;47.408;18.822;2023-02-27T03:50:09;15.40;;;7.35;;
70165;SDS011;57541;47.408;18.822;2023-02-27T03:50:41;13.45;;;6.80;;
70165;SDS011;57541;47.408;18.822;2023-02-27T03:51:14;11.80;;;6.60;;
70165;SDS011;57541;47.408;18.822;2023-02-27T03:51:49;14.50;;;7.45;;
70165;SDS011;57541;47.408;18.822;2023-02-27T03:52:21;12.48;;;7.20;;
70165;SDS011;57541;47.408;18.822;2023-02-27T03:52:55;12.15;;;7.13;;
70165;SDS011;57541;47.408;18.822;2023-02-27T03:53:39;12.38;;;6.75;;
70165;SDS011;57541;47.408;18.822;2023-02-27T03:54:20;15.35;;;7.22;;
70165;SDS011;57541;47.408;18.822;2023-02-27T03:55:01;13.48;;;6.63;;
70165;SDS011;57541;47.408;18.822;2023-02-27T03:55:35;12.90;;;7.20;;
70165;SDS011;57541;47.408;18.822;2023-02-27T03:56:10;15.60;;;7.40;;
70165;SDS011;57541;47.408;18.822;2023-02-27T03:56:49;13.43;;;6.50;;
70165;SDS011;57541;47.408;18.822;2023-02-27T03:57:26;15.23;;;6.90;;
70165;SDS011;57541;47.408;18.822;2023-02-27T03:57:58;13.95;;;7.10;;
70165;SDS011;57541;47.408;18.822;2023-02-27T03:58:31;13.07;;;6.70;;
70165;SDS011;57541;47.408;18.822;2023-02-27T03:59:03;12.98;;;6.72;;
70165;SDS011;57541;47.408;18.822;2023-02-27T03:59:35;13.15;;;7.25;;
70165;SDS011;57541;47.408;18.822;2023-02-27T04:00:10;12.65;;;7.53;;
70165;SDS011;57541;47.408;18.822;2023-02-27T04:00:44;13.77;;;6.90;;
70165;SDS011;57541;47.408;18.822;2023-02-27T04:01:16;12.85;;;6.97;;
70165;SDS011;57541;47.408;18.822;2023-02-27T04:01:49;13.07;;;7.10;;
70165;SDS011;57541;47.408;18.822;2023-02-27T04:02:22;12.38;;;7.25;;